sensor_id;sensor_type;location;lat;lon;timestamp;pressure;altitude;pressure_sealevel;temperature;humidity
28008;BME280;15333;50.010;20.020;2023-07-24T00:02:53;98203.25;;;20.71;57.94
28008;BME280;15333;50.010;20.020;2023-07-24T00:05:58;98203.69;;;20.53;59.70
28008;BME280;15333;50.010;20.020;2023-07-24T00:08:59;98200.06;;;20.46;60.53
28008;BME280;15333;50.010;20.020;2023-07-24T00:12:00;98203.00;;;20.30;60.78
28008;BME280;15333;50.010;20.020;2023-07-24T00:15:01;98205.16;;;20.20;60.51
28008;BME280;15333;50.010;20.020;2023-07-24T00:18:02;98200.50;;;20.14;60.30
28008;BME280;15333;50.010;20.020;2023-07-24T00:21:04;98200.88;;;20.11;60.29
28008;BME280;15333;50.010;20.020;2023-07-24T00:24:05;98192.47;;;20.06;61.20
28008;BME280;15333;50.010;20.020;2023-07-24T00:27:06;98193.59;;;19.97;60.62
28008;BME280;15333;50.010;20.020;2023-07-24T00:30:07;98189.31;;;19.87;60.19
28008;BME280;15333;50.010;20.020;2023-07-24T00:33:08;98187.72;;;19.78;61.59
28008;BME280;15333;50.010;20.020;2023-07-24T00:36:09;98180.69;;;19.69;61.48
28008;BME280;15333;50.010;20.020;2023-07-24T00:39:10;98184.94;;;19.72;63.34
28008;BME280;15333;50.010;20.020;2023-07-24T00:42:11;98177.88;;;19.77;64.61
28008;BME280;15333;50.010;20.020;2023-07-24T00:45:12;98174.44;;;19.69;66.06
28008;BME280;15333;50.010;20.020;2023-07-24T00:48:14;98183.41;;;19.54;67.73
28008;BME280;15333;50.010;20.020;2023-07-24T00:51:15;98180.22;;;19.36;68.42
28008;BME280;15333;50.010;20.020;2023-07-24T00:54:16;98175.16;;;19.33;67.96
28008;BME280;15333;50.010;20.020;2023-07-24T00:57:18;98182.41;;;19.70;64.01
28008;BME280;15333;50.010;20.020;2023-07-24T01:00:20;98178.16;;;19.82;63.67
28008;BME280;15333;50.010;20.020;2023-07-24T01:03:26;98182.56;;;19.83;63.01
28008;BME280;15333;50.010;20.020;2023-07-24T01:06:31;98171.69;;;19.83;62.42
28008;BME280;15333;50.010;20.020;2023-07-24T01:09:32;98168.34;;;19.81;63.03
28008;BME280;15333;50.010;20.020;2023-07-24T01:12:40;98172.78;;;19.68;64.40
28008;BME280;15333;50.010;20.020;2023-07-24T01:15:50;98173.41;;;19.55;66.32
28008;BME280;15333;50.010;20.020;2023-07-24T01:18:55;98166.69;;;19.51;69.49
28008;BME280;15333;50.010;20.020;2023-07-24T01:22:27;98170.88;;;19.39;69.99
28008;BME280;15333;50.010;20.020;2023-07-24T01:25:35;98176.84;;;19.34;70.15
28008;BME280;15333;50.010;20.020;2023-07-24T01:28:36;98165.88;;;19.28;70.55
28008;BME280;15333;50.010;20.020;2023-07-24T01:31:37;98171.50;;;19.41;69.93
28008;BME280;15333;50.010;20.020;2023-07-24T01:34:38;98161.50;;;19.41;70.83
28008;BME280;15333;50.010;20.020;2023-07-24T01:37:39;98156.47;;;19.38;70.95
28008;BME280;15333;50.010;20.020;2023-07-24T01:40:42;98155.97;;;19.35;70.37
28008;BME280;15333;50.010;20.020;2023-07-24T01:43:44;98158.88;;;19.33;71.58
28008;BME280;15333;50.010;20.020;2023-07-24T01:46:45;98151.13;;;19.30;71.32
28008;BME280;15333;50.010;20.020;2023-07-24T01:49:48;98145.13;;;19.35;70.59
28008;BME280;15333;50.010;20.020;2023-07-24T01:52:49;98147.94;;;19.56;69.55
28008;BME280;15333;50.010;20.020;2023-07-24T01:55:50;98140.94;;;19.98;68.69
28008;BME280;15333;50.010;20.020;2023-07-24T01:58:51;98143.84;;;20.32;67.13
28008;BME280;15333;50.010;20.020;2023-07-24T02:01:52;98136.75;;;20.74;64.98
28008;BME280;15333;50.010;20.020;2023-07-24T02:04:53;98133.50;;;20.85;64.43
28008;BME280;15333;50.010;20.020;2023-07-24T02:07:54;98144.13;;;21.07;63.98
28008;BME280;15333;50.010;20.020;2023-07-24T02:10:55;98145.50;;;20.97;64.54
28008;BME280;15333;50.010;20.020;2023-07-24T02:13:56;98153.44;;;20.70;65.79
28008;BME280;15333;50.010;20.020;2023-07-24T02:16:57;98157.28;;;20.55;66.34
28008;BME280;15333;50.010;20.020;2023-07-24T02:19:58;98161.63;;;20.49;66.05
28008;BME280;15333;50.010;20.020;2023-07-24T02:22:59;98168.63;;;20.37;67.46
28008;BME280;15333;50.010;20.020;2023-07-24T02:26:03;98163.63;;;20.26;68.04
28008;BME280;15333;50.010;20.020;2023-07-24T02:29:17;98161.09;;;20.39;66.64
28008;BME280;15333;50.010;20.020;2023-07-24T02:32:36;98168.50;;;20.66;64.70
28008;BME280;15333;50.010;20.020;2023-07-24T02:35:47;98170.69;;;20.56;65.96
28008;BME280;15333;50.010;20.020;2023-07-24T02:38:49;98168.09;;;20.48;66.20
28008;BME280;15333;50.010;20.020;2023-07-24T02:41:50;98164.22;;;20.36;66.68
28008;BME280;15333;50.010;20.020;2023-07-24T02:44:52;98164.28;;;20.28;68.16
28008;BME280;15333;50.010;20.020;2023-07-24T02:47:53;98163.75;;;20.18;68.10
28008;BME280;15333;50.010;20.020;2023-07-24T02:50:55;98163.50;;;20.13;68.35
28008;BME280;15333;50.010;20.020;2023-07-24T02:53:55;98158.31;;;20.18;68.69
28008;BME280;15333;50.010;20.020;2023-07-24T02:56:57;98152.44;;;20.50;66.82
28008;BME280;15333;50.010;20.020;2023-07-24T02:59:58;98153.22;;;20.44;67.21
28008;BME280;15333;50.010;20.020;2023-07-24T03:02:59;98153.25;;;20.29;67.81
28008;BME280;15333;50.010;20.020;2023-07-24T03:06:01;98152.50;;;20.21;69.07
28008;BME280;15333;50.010;20.020;2023-07-24T03:09:02;98146.69;;;20.24;69.76
28008;BME280;15333;50.010;20.020;2023-07-24T03:12:03;98143.31;;;20.22;69.39
28008;BME280;15333;50.010;20.020;2023-07-24T03:15:04;98148.22;;;20.48;68.04
28008;BME280;15333;50.010;20.020;2023-07-24T03:18:05;98157.22;;;20.69;67.89
28008;BME280;15333;50.010;20.020;2023-07-24T03:21:06;98158.53;;;20.74;68.01
28008;BME280;15333;50.010;20.020;2023-07-24T03:24:07;98148.13;;;20.84;68.07
28008;BME280;15333;50.010;20.020;2023-07-24T03:27:08;98148.97;;;20.84;67.96
28008;BME280;15333;50.010;20.020;2023-07-24T03:30:09;98141.78;;;20.77;68.42
28008;BME280;15333;50.010;20.020;2023-07-24T03:33:11;98145.53;;;20.76;68.34
28008;BME280;15333;50.010;20.020;2023-07-24T03:36:12;98147.22;;;20.77;68.38
28008;BME280;15333;50.010;20.020;2023-07-24T03:39:13;98151.13;;;20.89;69.04
28008;BME280;15333;50.010;20.020;2023-07-24T03:42:27;98154.31;;;20.99;68.74
28008;BME280;15333;50.010;20.020;2023-07-24T03:45:28;98146.56;;;20.96;68.01
28008;BME280;15333;50.010;20.020;2023-07-24T03:48:29;98149.97;;;21.04;68.00
28008;BME280;15333;50.010;20.020;2023-07-24T03:51:30;98151.34;;;21.49;66.39
28008;BME280;15333;50.010;20.020;2023-07-24T03:54:31;98161.13;;;21.72;67.59
28008;BME280;15333;50.010;20.020;2023-07-24T03:57:32;98152.88;;;21.59;67.54
28008;BME280;15333;50.010;20.020;2023-07-24T04:00:33;98158.56;;;21.29;66.40
28008;BME280;15333;50.010;20.020;2023-07-24T04:03:34;98148.50;;;21.30;65.25
28008;BME280;15333;50.010;20.020;2023-07-24T04:06:35;98148.72;;;21.28;65.45
28008;BME280;15333;50.010;20.020;2023-07-24T04:09:36;98154.72;;;21.17;66.17
28008;BME280;15333;50.010;20.020;2023-07-24T04:12:37;98156.28;;;21.11;66.15
28008;BME280;15333;50.010;20.020;2023-07-24T04:15:38;98153.88;;;21.17;67.52
28008;BME280;15333;50.010;20.020;2023-07-24T04:18:40;98157.25;;;21.25;68.43
28008;BME280;15333;50.010;20.020;2023-07-24T04:21:41;98162.97;;;21.30;67.00
28008;BME280;15333;50.010;20.020;2023-07-24T04:24:41;98156.94;;;21.41;69.28
28008;BME280;15333;50.010;20.020;2023-07-24T04:27:42;98164.19;;;21.28;71.77
28008;BME280;15333;50.010;20.020;2023-07-24T04:30:43;98163.69;;;21.45;71.26
28008;BME280;15333;50.010;20.020;2023-07-24T04:33:44;98161.47;;;21.28;72.36
28008;BME280;15333;50.010;20.020;2023-07-24T04:36:45;98160.22;;;21.24;72.96
28008;BME280;15333;50.010;20.020;2023-07-24T04:39:46;98158.47;;;21.16;74.09
28008;BME280;15333;50.010;20.020;2023-07-24T04:42:47;98158.94;;;21.26;72.77
28008;BME280;15333;50.010;20.020;2023-07-24T04:45:48;98164.75;;;21.44;71.70
28008;BME280;15333;50.010;20.020;2023-07-24T04:48:48;98162.09;;;21.58;71.72
28008;BME280;15333;50.010;20.020;2023-07-24T04:51:50;98165.06;;;22.97;67.02
28008;BME280;15333;50.010;20.020;2023-07-24T04:54:51;98153.91;;;25.10;60.41
28008;BME280;15333;50.010;20.020;2023-07-24T04:57:52;98163.47;;;27.13;53.14
28008;BME280;15333;50.010;20.020;2023-07-24T05:00:53;98148.72;;;28.01;49.21
28008;BME280;15333;50.010;20.020;2023-07-24T05:03:54;98158.72;;;28.30;48.55
28008;BME280;15333;50.010;20.020;2023-07-24T05:06:54;98152.56;;;28.40;48.24
28008;BME280;15333;50.010;20.020;2023-07-24T05:09:55;98145.47;;;29.17;46.70
28008;BME280;15333;50.010;20.020;2023-07-24T05:12:56;98137.91;;;29.63;45.66
28008;BME280;15333;50.010;20.020;2023-07-24T05:15:57;98156.59;;;29.39;46.05
28008;BME280;15333;50.010;20.020;2023-07-24T05:18:59;98158.31;;;30.22;43.44
28008;BME280;15333;50.010;20.020;2023-07-24T05:22:00;98155.41;;;29.18;47.95
28008;BME280;15333;50.010;20.020;2023-07-24T05:25:01;98146.03;;;29.53;45.88
28008;BME280;15333;50.010;20.020;2023-07-24T05:28:02;98153.13;;;28.82;47.70
28008;BME280;15333;50.010;20.020;2023-07-24T05:31:04;98152.72;;;28.33;48.65
28008;BME280;15333;50.010;20.020;2023-07-24T05:34:06;98145.69;;;28.71;48.91
28008;BME280;15333;50.010;20.020;2023-07-24T05:37:06;98155.78;;;28.20;49.59
28008;BME280;15333;50.010;20.020;2023-07-24T05:40:08;98136.31;;;27.87;50.60
28008;BME280;15333;50.010;20.020;2023-07-24T05:43:08;98153.44;;;26.77;53.83
28008;BME280;15333;50.010;20.020;2023-07-24T05:46:10;98154.09;;;27.03;53.07
28008;BME280;15333;50.010;20.020;2023-07-24T05:49:10;98160.13;;;27.46;53.20
28008;BME280;15333;50.010;20.020;2023-07-24T05:52:11;98151.75;;;28.39;50.52
28008;BME280;15333;50.010;20.020;2023-07-24T05:55:12;98159.50;;;28.42;50.60
28008;BME280;15333;50.010;20.020;2023-07-24T05:58:14;98151.38;;;29.26;48.54
28008;BME280;15333;50.010;20.020;2023-07-24T06:01:15;98149.53;;;29.32;48.91
28008;BME280;15333;50.010;20.020;2023-07-24T06:04:16;98143.53;;;29.35;48.65
28008;BME280;15333;50.010;20.020;2023-07-24T06:07:17;98152.91;;;28.43;51.74
28008;BME280;15333;50.010;20.020;2023-07-24T06:10:18;98148.56;;;28.08;52.38
28008;BME280;15333;50.010;20.020;2023-07-24T06:13:19;98149.84;;;27.18;55.50
28008;BME280;15333;50.010;20.020;2023-07-24T06:16:20;98160.00;;;27.41;54.60
28008;BME280;15333;50.010;20.020;2023-07-24T06:19:21;98152.34;;;27.43;54.39
28008;BME280;15333;50.010;20.020;2023-07-24T06:22:22;98148.50;;;26.98;55.87
28008;BME280;15333;50.010;20.020;2023-07-24T06:25:23;98138.56;;;26.55;56.18
28008;BME280;15333;50.010;20.020;2023-07-24T06:28:24;98157.19;;;26.53;56.62
28008;BME280;15333;50.010;20.020;2023-07-24T06:31:25;98150.53;;;26.12;57.76
28008;BME280;15333;50.010;20.020;2023-07-24T06:34:26;98153.91;;;26.15;58.12
28008;BME280;15333;50.010;20.020;2023-07-24T06:37:26;98154.34;;;26.11;58.43
28008;BME280;15333;50.010;20.020;2023-07-24T06:40:28;98147.41;;;26.57;56.91
28008;BME280;15333;50.010;20.020;2023-07-24T06:43:28;98136.47;;;26.80;56.34
28008;BME280;15333;50.010;20.020;2023-07-24T06:46:29;98139.91;;;27.29;55.46
28008;BME280;15333;50.010;20.020;2023-07-24T06:49:30;98137.06;;;27.47;54.27
28008;BME280;15333;50.010;20.020;2023-07-24T06:52:32;98140.16;;;27.39;54.33
28008;BME280;15333;50.010;20.020;2023-07-24T06:55:33;98144.81;;;27.04;55.69
28008;BME280;15333;50.010;20.020;2023-07-24T06:58:34;98138.66;;;26.78;55.51
28008;BME280;15333;50.010;20.020;2023-07-24T07:01:34;98145.31;;;26.82;55.68
28008;BME280;15333;50.010;20.020;2023-07-24T07:04:35;98151.03;;;26.69;55.88
28008;BME280;15333;50.010;20.020;2023-07-24T07:07:36;98147.53;;;27.04;54.36
28008;BME280;15333;50.010;20.020;2023-07-24T07:10:37;98142.78;;;27.57;54.26
28008;BME280;15333;50.010;20.020;2023-07-24T07:13:38;98135.84;;;27.43;51.11
28008;BME280;15333;50.010;20.020;2023-07-24T07:16:39;98135.22;;;27.88;51.28
28008;BME280;15333;50.010;20.020;2023-07-24T07:19:41;98130.50;;;28.23;49.47
28008;BME280;15333;50.010;20.020;2023-07-24T07:22:42;98128.56;;;27.84;48.57
28008;BME280;15333;50.010;20.020;2023-07-24T07:25:43;98133.69;;;27.92;48.44
28008;BME280;15333;50.010;20.020;2023-07-24T07:28:45;98128.50;;;28.35;46.42
28008;BME280;15333;50.010;20.020;2023-07-24T07:31:46;98137.22;;;28.44;45.56
28008;BME280;15333;50.010;20.020;2023-07-24T07:34:47;98145.53;;;28.32;45.86
28008;BME280;15333;50.010;20.020;2023-07-24T07:37:48;98146.13;;;28.34;44.62
28008;BME280;15333;50.010;20.020;2023-07-24T07:40:49;98145.72;;;28.42;45.08
28008;BME280;15333;50.010;20.020;2023-07-24T07:43:50;98148.09;;;28.11;45.16
28008;BME280;15333;50.010;20.020;2023-07-24T07:46:51;98135.38;;;28.21;45.19
28008;BME280;15333;50.010;20.020;2023-07-24T07:49:52;98141.53;;;28.00;45.88
28008;BME280;15333;50.010;20.020;2023-07-24T07:52:53;98142.06;;;27.74;46.95
28008;BME280;15333;50.010;20.020;2023-07-24T07:55:57;98136.38;;;27.63;47.59
28008;BME280;15333;50.010;20.020;2023-07-24T07:59:00;98125.69;;;27.32;47.46
28008;BME280;15333;50.010;20.020;2023-07-24T08:02:01;98128.31;;;27.39;48.28
28008;BME280;15333;50.010;20.020;2023-07-24T08:05:03;98118.75;;;27.29;45.85
28008;BME280;15333;50.010;20.020;2023-07-24T08:08:04;98121.28;;;27.31;44.54
28008;BME280;15333;50.010;20.020;2023-07-24T08:11:06;98112.94;;;27.26;44.83
28008;BME280;15333;50.010;20.020;2023-07-24T08:14:06;98110.78;;;27.63;45.78
28008;BME280;15333;50.010;20.020;2023-07-24T08:17:07;98117.13;;;27.63;44.13
28008;BME280;15333;50.010;20.020;2023-07-24T08:20:08;98104.31;;;27.69;44.11
28008;BME280;15333;50.010;20.020;2023-07-24T08:23:09;98109.03;;;27.97;43.68
28008;BME280;15333;50.010;20.020;2023-07-24T08:26:10;98099.97;;;27.85;42.87
28008;BME280;15333;50.010;20.020;2023-07-24T08:29:12;98110.38;;;27.83;42.84
28008;BME280;15333;50.010;20.020;2023-07-24T08:32:13;98110.31;;;27.54;43.04
28008;BME280;15333;50.010;20.020;2023-07-24T08:35:14;98096.78;;;27.53;43.54
28008;BME280;15333;50.010;20.020;2023-07-24T08:38:14;98091.63;;;27.68;43.61
28008;BME280;15333;50.010;20.020;2023-07-24T08:41:15;98088.28;;;27.66;43.84
28008;BME280;15333;50.010;20.020;2023-07-24T08:44:16;98091.81;;;27.90;44.10
28008;BME280;15333;50.010;20.020;2023-07-24T08:47:18;98101.41;;;27.76;44.63
28008;BME280;15333;50.010;20.020;2023-07-24T08:50:19;98086.31;;;27.90;43.98
28008;BME280;15333;50.010;20.020;2023-07-24T08:53:21;98102.25;;;27.76;43.53
28008;BME280;15333;50.010;20.020;2023-07-24T08:56:23;98094.94;;;27.82;43.53
28008;BME280;15333;50.010;20.020;2023-07-24T08:59:24;98090.41;;;27.76;43.32
28008;BME280;15333;50.010;20.020;2023-07-24T09:02:25;98080.22;;;27.88;44.93
28008;BME280;15333;50.010;20.020;2023-07-24T09:05:26;98079.53;;;27.81;44.78
28008;BME280;15333;50.010;20.020;2023-07-24T09:08:34;98068.88;;;27.73;45.76
28008;BME280;15333;50.010;20.020;2023-07-24T09:11:54;98079.03;;;27.84;45.04
28008;BME280;15333;50.010;20.020;2023-07-24T09:15:02;98074.94;;;27.98;45.61
28008;BME280;15333;50.010;20.020;2023-07-24T09:18:03;98076.47;;;28.34;45.29
28008;BME280;15333;50.010;20.020;2023-07-24T09:21:04;98066.59;;;28.21;43.99
28008;BME280;15333;50.010;20.020;2023-07-24T09:24:18;98074.94;;;28.55;43.77
28008;BME280;15333;50.010;20.020;2023-07-24T09:27:19;98074.38;;;28.69;42.07
28008;BME280;15333;50.010;20.020;2023-07-24T09:30:21;98066.81;;;28.65;41.97
28008;BME280;15333;50.010;20.020;2023-07-24T09:33:38;98071.34;;;28.71;41.73
28008;BME280;15333;50.010;20.020;2023-07-24T09:36:40;98067.88;;;28.75;41.05
28008;BME280;15333;50.010;20.020;2023-07-24T09:39:40;98061.03;;;28.95;40.70
28008;BME280;15333;50.010;20.020;2023-07-24T09:42:41;98059.94;;;29.12;40.86
28008;BME280;15333;50.010;20.020;2023-07-24T09:45:43;98036.22;;;29.50;39.94
28008;BME280;15333;50.010;20.020;2023-07-24T09:48:44;98059.91;;;29.89;40.17
28008;BME280;15333;50.010;20.020;2023-07-24T09:51:47;98049.91;;;29.62;40.49
28008;BME280;15333;50.010;20.020;2023-07-24T09:55:07;98049.78;;;29.35;40.29
28008;BME280;15333;50.010;20.020;2023-07-24T09:58:10;98038.59;;;29.25;40.37
28008;BME280;15333;50.010;20.020;2023-07-24T10:01:12;98034.25;;;29.29;40.91
28008;BME280;15333;50.010;20.020;2023-07-24T10:04:15;98030.97;;;29.70;40.95
28008;BME280;15333;50.010;20.020;2023-07-24T10:07:16;98016.06;;;29.49;40.57
28008;BME280;15333;50.010;20.020;2023-07-24T10:10:22;98008.34;;;29.46;41.30
28008;BME280;15333;50.010;20.020;2023-07-24T10:13:26;98012.22;;;29.72;41.45
28008;BME280;15333;50.010;20.020;2023-07-24T10:16:27;98008.88;;;29.70;38.90
28008;BME280;15333;50.010;20.020;2023-07-24T10:19:41;97983.66;;;29.18;40.46
28008;BME280;15333;50.010;20.020;2023-07-24T10:22:45;97994.88;;;29.11;41.55
28008;BME280;15333;50.010;20.020;2023-07-24T10:25:50;98001.53;;;29.15;40.98
28008;BME280;15333;50.010;20.020;2023-07-24T10:28:52;98005.00;;;29.44;40.45
28008;BME280;15333;50.010;20.020;2023-07-24T10:31:54;98005.38;;;29.14;40.68
28008;BME280;15333;50.010;20.020;2023-07-24T10:34:59;98011.72;;;28.76;40.76
28008;BME280;15333;50.010;20.020;2023-07-24T10:38:01;98002.91;;;28.96;39.39
28008;BME280;15333;50.010;20.020;2023-07-24T10:41:04;98005.91;;;29.11;39.62
28008;BME280;15333;50.010;20.020;2023-07-24T10:44:06;98004.28;;;29.15;39.97
28008;BME280;15333;50.010;20.020;2023-07-24T10:47:07;98002.47;;;29.43;40.19
28008;BME280;15333;50.010;20.020;2023-07-24T10:50:08;98006.31;;;29.85;40.14
28008;BME280;15333;50.010;20.020;2023-07-24T10:53:09;97997.53;;;30.10;40.17
28008;BME280;15333;50.010;20.020;2023-07-24T10:56:11;98000.50;;;30.04;39.78
28008;BME280;15333;50.010;20.020;2023-07-24T10:59:12;97998.50;;;29.77;39.42
28008;BME280;15333;50.010;20.020;2023-07-24T11:02:16;97994.19;;;29.86;38.77
28008;BME280;15333;50.010;20.020;2023-07-24T11:05:17;97994.13;;;29.81;40.49
28008;BME280;15333;50.010;20.020;2023-07-24T11:08:20;98000.69;;;29.75;40.52
28008;BME280;15333;50.010;20.020;2023-07-24T11:11:21;97990.69;;;29.69;40.48
28008;BME280;15333;50.010;20.020;2023-07-24T11:14:23;97987.44;;;29.77;40.58
28008;BME280;15333;50.010;20.020;2023-07-24T11:17:35;97991.97;;;29.83;40.90
28008;BME280;15333;50.010;20.020;2023-07-24T11:20:46;97985.06;;;29.86;40.77
28008;BME280;15333;50.010;20.020;2023-07-24T11:23:56;97982.41;;;30.18;40.99
28008;BME280;15333;50.010;20.020;2023-07-24T11:26:57;97985.41;;;29.89;40.61
28008;BME280;15333;50.010;20.020;2023-07-24T11:29:58;97984.00;;;29.65;41.55
28008;BME280;15333;50.010;20.020;2023-07-24T11:33:00;97980.16;;;29.66;41.31
28008;BME280;15333;50.010;20.020;2023-07-24T11:36:02;97988.50;;;29.71;41.58
28008;BME280;15333;50.010;20.020;2023-07-24T11:39:03;97979.03;;;29.62;41.41
28008;BME280;15333;50.010;20.020;2023-07-24T11:42:05;97982.13;;;29.71;40.16
28008;BME280;15333;50.010;20.020;2023-07-24T11:45:07;97984.69;;;30.26;37.44
28008;BME280;15333;50.010;20.020;2023-07-24T11:48:11;97972.94;;;30.67;36.79
28008;BME280;15333;50.010;20.020;2023-07-24T11:51:12;97975.84;;;30.24;36.38
28008;BME280;15333;50.010;20.020;2023-07-24T11:54:13;97959.03;;;30.57;36.84
28008;BME280;15333;50.010;20.020;2023-07-24T11:57:15;97966.97;;;29.68;37.38
28008;BME280;15333;50.010;20.020;2023-07-24T12:00:19;97959.47;;;29.90;37.12
28008;BME280;15333;50.010;20.020;2023-07-24T12:03:30;97958.66;;;30.17;37.14
28008;BME280;15333;50.010;20.020;2023-07-24T12:06:31;97966.75;;;30.28;37.08
28008;BME280;15333;50.010;20.020;2023-07-24T12:09:33;97954.19;;;30.74;37.69
28008;BME280;15333;50.010;20.020;2023-07-24T12:12:46;97947.47;;;30.60;36.89
28008;BME280;15333;50.010;20.020;2023-07-24T12:15:48;97933.50;;;30.45;36.37
28008;BME280;15333;50.010;20.020;2023-07-24T12:18:49;97938.84;;;30.99;36.18
28008;BME280;15333;50.010;20.020;2023-07-24T12:21:50;97921.97;;;30.90;36.13
28008;BME280;15333;50.010;20.020;2023-07-24T12:24:50;97918.69;;;30.56;36.97
28008;BME280;15333;50.010;20.020;2023-07-24T12:27:51;97904.47;;;30.74;36.83
28008;BME280;15333;50.010;20.020;2023-07-24T12:30:52;97898.00;;;30.27;35.98
28008;BME280;15333;50.010;20.020;2023-07-24T12:34:13;97889.69;;;30.22;36.20
28008;BME280;15333;50.010;20.020;2023-07-24T12:37:13;97880.09;;;30.66;35.73
28008;BME280;15333;50.010;20.020;2023-07-24T12:40:14;97882.56;;;30.31;36.65
28008;BME280;15333;50.010;20.020;2023-07-24T12:43:15;97865.78;;;30.80;35.37
28008;BME280;15333;50.010;20.020;2023-07-24T12:46:16;97863.88;;;30.80;35.58
28008;BME280;15333;50.010;20.020;2023-07-24T12:49:17;97869.56;;;30.63;36.62
28008;BME280;15333;50.010;20.020;2023-07-24T12:52:18;97869.31;;;30.70;36.88
28008;BME280;15333;50.010;20.020;2023-07-24T12:55:18;97864.63;;;30.70;37.45
28008;BME280;15333;50.010;20.020;2023-07-24T12:58:20;97867.13;;;30.72;37.25
28008;BME280;15333;50.010;20.020;2023-07-24T13:01:21;97855.03;;;30.41;38.26
28008;BME280;15333;50.010;20.020;2023-07-24T13:04:23;97854.97;;;30.31;39.72
28008;BME280;15333;50.010;20.020;2023-07-24T13:07:23;97835.13;;;30.39;38.33
28008;BME280;15333;50.010;20.020;2023-07-24T13:10:24;97841.84;;;30.11;39.64
28008;BME280;15333;50.010;20.020;2023-07-24T13:13:25;97834.91;;;30.09;38.84
28008;BME280;15333;50.010;20.020;2023-07-24T13:16:27;97821.25;;;30.29;38.61
28008;BME280;15333;50.010;20.020;2023-07-24T13:19:28;97818.47;;;30.66;38.30
28008;BME280;15333;50.010;20.020;2023-07-24T13:22:29;97812.41;;;31.26;37.46
28008;BME280;15333;50.010;20.020;2023-07-24T13:25:29;97810.16;;;31.28;37.71
28008;BME280;15333;50.010;20.020;2023-07-24T13:28:30;97801.91;;;31.43;36.53
28008;BME280;15333;50.010;20.020;2023-07-24T13:31:31;97789.53;;;31.86;35.61
28008;BME280;15333;50.010;20.020;2023-07-24T13:34:32;97782.03;;;32.02;35.29
28008;BME280;15333;50.010;20.020;2023-07-24T13:37:33;97771.81;;;31.82;36.25
28008;BME280;15333;50.010;20.020;2023-07-24T13:40:35;97771.78;;;31.93;36.64
28008;BME280;15333;50.010;20.020;2023-07-24T13:43:36;97764.84;;;32.05;35.07
28008;BME280;15333;50.010;20.020;2023-07-24T13:46:37;97761.56;;;32.03;35.17
28008;BME280;15333;50.010;20.020;2023-07-24T13:49:38;97752.91;;;31.13;37.16
28008;BME280;15333;50.010;20.020;2023-07-24T13:52:39;97755.63;;;31.03;37.80
28008;BME280;15333;50.010;20.020;2023-07-24T13:55:39;97746.44;;;30.88;38.11
28008;BME280;15333;50.010;20.020;2023-07-24T13:58:40;97744.13;;;30.54;38.92
28008;BME280;15333;50.010;20.020;2023-07-24T14:01:41;97730.56;;;30.53;38.44
28008;BME280;15333;50.010;20.020;2023-07-24T14:04:42;97720.28;;;30.43;37.42
28008;BME280;15333;50.010;20.020;2023-07-24T14:07:43;97707.66;;;30.52;38.58
28008;BME280;15333;50.010;20.020;2023-07-24T14:10:45;97708.22;;;30.59;38.64
28008;BME280;15333;50.010;20.020;2023-07-24T14:13:45;97708.13;;;30.49;38.89
28008;BME280;15333;50.010;20.020;2023-07-24T14:16:47;97699.38;;;30.57;39.68
28008;BME280;15333;50.010;20.020;2023-07-24T14:19:48;97693.22;;;30.40;40.63
28008;BME280;15333;50.010;20.020;2023-07-24T14:22:49;97694.41;;;30.54;40.78
28008;BME280;15333;50.010;20.020;2023-07-24T14:25:50;97700.00;;;30.80;40.31
28008;BME280;15333;50.010;20.020;2023-07-24T14:28:51;97697.03;;;31.06;39.74
28008;BME280;15333;50.010;20.020;2023-07-24T14:31:51;97694.88;;;31.59;38.42
28008;BME280;15333;50.010;20.020;2023-07-24T14:34:52;97692.38;;;31.88;38.63
28008;BME280;15333;50.010;20.020;2023-07-24T14:37:53;97687.97;;;31.82;38.05
28008;BME280;15333;50.010;20.020;2023-07-24T14:40:54;97684.09;;;31.52;38.92
28008;BME280;15333;50.010;20.020;2023-07-24T14:43:55;97684.09;;;31.52;37.36
28008;BME280;15333;50.010;20.020;2023-07-24T14:46:56;97684.34;;;31.36;37.60
28008;BME280;15333;50.010;20.020;2023-07-24T14:49:57;97675.44;;;30.98;37.46
28008;BME280;15333;50.010;20.020;2023-07-24T14:52:59;97678.38;;;30.56;40.01
28008;BME280;15333;50.010;20.020;2023-07-24T14:56:00;97678.94;;;30.63;39.86
28008;BME280;15333;50.010;20.020;2023-07-24T14:59:01;97671.16;;;30.50;40.67
28008;BME280;15333;50.010;20.020;2023-07-24T15:02:01;97662.28;;;30.48;40.01
28008;BME280;15333;50.010;20.020;2023-07-24T15:05:03;97653.75;;;30.50;39.98
28008;BME280;15333;50.010;20.020;2023-07-24T15:08:04;97641.84;;;30.49;39.61
28008;BME280;15333;50.010;20.020;2023-07-24T15:11:05;97646.53;;;29.91;41.21
28008;BME280;15333;50.010;20.020;2023-07-24T15:14:05;97631.16;;;29.95;41.31
28008;BME280;15333;50.010;20.020;2023-07-24T15:17:06;97632.84;;;29.96;42.10
28008;BME280;15333;50.010;20.020;2023-07-24T15:20:07;97622.25;;;29.83;42.64
28008;BME280;15333;50.010;20.020;2023-07-24T15:23:09;97606.69;;;29.67;43.09
28008;BME280;15333;50.010;20.020;2023-07-24T15:26:10;97592.06;;;29.62;42.84
28008;BME280;15333;50.010;20.020;2023-07-24T15:29:12;97590.25;;;29.87;42.78
28008;BME280;15333;50.010;20.020;2023-07-24T15:32:15;97593.63;;;29.94;42.72
28008;BME280;15333;50.010;20.020;2023-07-24T15:35:17;97581.63;;;30.26;40.78
28008;BME280;15333;50.010;20.020;2023-07-24T15:38:18;97565.63;;;30.33;41.54
28008;BME280;15333;50.010;20.020;2023-07-24T15:41:19;97562.28;;;30.31;41.67
28008;BME280;15333;50.010;20.020;2023-07-24T15:44:20;97558.13;;;30.28;41.99
28008;BME280;15333;50.010;20.020;2023-07-24T15:47:21;97554.28;;;30.29;42.52
28008;BME280;15333;50.010;20.020;2023-07-24T15:50:22;97557.56;;;30.11;41.73
28008;BME280;15333;50.010;20.020;2023-07-24T15:53:23;97558.22;;;29.81;42.60